Time;durP1;ratioP1;P1;durP2;ratioP2;P2;SDS_P1;SDS_P2;PMS_P1;PMS_P2;Temp;Humidity;BMP_temperature;BMP_pressure;BME280_temperature;BME280_humidity;BME280_pressure;Samples;Min_cycle;Max_cycle;Signal;HPM_P1;HPM_P2
2023/10/25 00:01:07;;;;;;;15.90;11.35;;;;;;;11.95;72.44;98442.69;4987336;28;20594;-81
2023/10/25 00:03:35;;;;;;;17.40;11.40;;;;;;;11.93;72.39;98434.06;4973901;28;20467;-82
2023/10/25 00:06:02;;;;;;;13.55;11.35;;;;;;;11.92;72.48;98447.41;4986693;28;20054;-81
2023/10/25 00:08:29;;;;;;;16.17;11.25;;;;;;;11.91;72.20;98441.28;4993113;28;20101;-82
2023/10/25 00:11:06;;;;;;;17.50;11.23;;;;;;;11.86;72.60;98433.75;4992923;28;20054;-84
2023/10/25 00:13:33;;;;;;;13.98;10.80;;;;;;;11.88;72.43;98440.72;4993506;28;20115;-81
2023/10/25 00:16:00;;;;;;;14.63;10.73;;;;;;;11.86;72.43;98433.75;4992979;28;20081;-82
2023/10/25 00:18:27;;;;;;;16.20;11.65;;;;;;;11.85;72.54;98426.00;4993068;28;20054;-81
2023/10/25 00:20:54;;;;;;;13.23;10.50;;;;;;;11.83;72.35;98428.75;4993137;28;20536;-82
2023/10/25 00:23:21;;;;;;;14.68;11.50;;;;;;;11.83;72.44;98433.19;4983459;28;20094;-82
2023/10/25 00:25:49;;;;;;;16.10;11.35;;;;;;;11.80;72.59;98434.28;4992343;28;20121;-81
2023/10/25 00:28:16;;;;;;;19.48;10.32;;;;;;;11.79;72.55;98437.88;4991537;28;20077;-79
2023/10/25 00:30:44;;;;;;;12.43;10.32;;;;;;;11.79;72.38;98431.75;4992795;28;20058;-81
2023/10/25 00:33:11;;;;;;;14.63;11.40;;;;;;;11.78;72.38;98444.09;4984419;28;20050;-82
2023/10/25 00:35:38;;;;;;;12.98;9.73;;;;;;;11.78;72.66;98449.38;4991002;28;20093;-81
2023/10/25 00:38:05;;;;;;;14.82;10.93;;;;;;;11.76;72.64;98451.31;4973667;28;20070;-82
2023/10/25 00:40:31;;;;;;;15.48;10.80;;;;;;;11.75;72.43;98451.44;4973920;28;20126;-83
2023/10/25 00:43:14;;;;;;;18.33;11.05;;;;;;;11.71;73.10;98456.13;4973103;28;20082;-82
2023/10/25 00:45:55;;;;;;;14.80;10.00;;;;;;;11.69;72.78;98453.63;4974429;28;20054;-82
2023/10/25 00:48:23;;;;;;;13.15;9.90;;;;;;;11.73;72.55;98451.56;4972969;28;20051;-81
2023/10/25 00:50:50;;;;;;;14.80;10.23;;;;;;;11.70;72.65;98460.56;4973167;28;20090;-81
2023/10/25 00:53:17;;;;;;;13.55;10.43;;;;;;;11.69;72.51;98458.03;4981079;28;20038;-83
2023/10/25 00:55:43;;;;;;;18.23;10.48;;;;;;;11.67;72.61;98454.72;4991642;28;20125;-82
2023/10/25 00:58:10;;;;;;;12.25;9.27;;;;;;;11.66;72.61;98456.50;4985539;28;20484;-79
2023/10/25 01:00:38;;;;;;;11.80;10.20;;;;;;;11.64;72.78;98460.22;4981192;28;20069;-87
2023/10/25 01:03:07;;;;;;;12.98;9.30;;;;;;;11.62;72.91;98455.06;4972040;28;20066;-81
2023/10/25 01:05:34;;;;;;;14.43;10.15;;;;;;;11.61;72.89;98450.78;4971783;28;20038;-82
2023/10/25 01:08:00;;;;;;;14.20;9.52;;;;;;;11.62;72.71;98456.91;4972850;28;20046;-81
2023/10/25 01:10:28;;;;;;;15.90;10.32;;;;;;;11.59;72.81;98450.06;4971401;28;20070;-81
2023/10/25 01:12:54;;;;;;;12.55;10.05;;;;;;;11.58;72.70;98445.75;4991977;28;20129;-77
2023/10/25 01:15:22;;;;;;;14.10;9.82;;;;;;;11.56;72.86;98453.78;4984721;28;20050;-80
2023/10/25 01:17:49;;;;;;;15.75;9.73;;;;;;;11.56;72.85;98443.22;4972971;28;20043;-81
2023/10/25 01:20:18;;;;;;;15.57;9.38;;;;;;;11.55;72.82;98452.13;4972378;28;20051;-78
2023/10/25 01:22:48;;;;;;;17.75;9.40;;;;;;;11.53;72.95;98447.94;4972972;28;20101;-77
2023/10/25 01:25:15;;;;;;;14.25;9.63;;;;;;;11.55;72.86;98444.22;4971528;28;20137;-82
2023/10/25 01:27:41;;;;;;;13.85;9.10;;;;;;;11.53;72.75;98440.88;4971800;28;20097;-82
2023/10/25 01:30:09;;;;;;;14.07;9.57;;;;;;;11.53;72.80;98442.66;4972699;28;20082;-81
2023/10/25 01:32:35;;;;;;;14.30;10.60;;;;;;;11.53;72.82;98440.03;4990134;28;20042;-81
2023/10/25 01:35:01;;;;;;;14.13;9.48;;;;;;;11.52;72.74;98438.34;4992249;28;20105;-86
2023/10/25 01:37:28;;;;;;;12.57;9.23;;;;;;;11.51;72.79;98440.16;4993352;28;20134;-83
2023/10/25 01:39:55;;;;;;;14.98;8.90;;;;;;;11.51;72.73;98441.97;4996033;28;20085;-78
2023/10/25 01:42:21;;;;;;;14.57;10.00;;;;;;;11.49;72.91;98436.81;4987313;28;20065;-81
2023/10/25 01:44:48;;;;;;;15.38;10.07;;;;;;;11.47;72.86;98450.13;4993190;28;20121;-80
2023/10/25 01:47:14;;;;;;;15.02;9.98;;;;;;;11.46;72.96;98445.81;4976498;28;20042;-84
2023/10/25 01:49:43;;;;;;;11.68;8.77;;;;;;;11.46;73.00;98442.34;4976287;28;20093;-82
2023/10/25 01:52:09;;;;;;;17.10;8.70;;;;;;;11.46;73.07;98434.44;4987983;28;20046;-81
2023/10/25 01:54:36;;;;;;;13.90;8.88;;;;;;;11.46;73.22;98439.69;4996108;28;20054;-84
2023/10/25 01:57:03;;;;;;;13.93;9.82;;;;;;;11.46;73.12;98440.53;4994462;28;20280;-81
2023/10/25 01:59:29;;;;;;;12.85;8.73;;;;;;;11.46;73.13;98431.78;4995760;28;20046;-80
2023/10/25 02:01:56;;;;;;;14.32;9.40;;;;;;;11.45;73.18;98419.59;4988770;28;20093;-87
2023/10/25 02:04:22;;;;;;;13.48;8.63;;;;;;;11.47;72.98;98422.91;4974790;28;20097;-80
2023/10/25 02:06:51;;;;;;;14.98;9.02;;;;;;;11.45;72.93;98423.03;4988694;28;20096;-84
2023/10/25 02:09:19;;;;;;;11.98;7.60;;;;;;;11.46;72.84;98416.84;4995666;28;20056;-80
2023/10/25 02:11:45;;;;;;;14.18;7.82;;;;;;;11.45;72.94;98414.31;4992685;28;20457;-86
2023/10/25 02:14:12;;;;;;;10.68;7.75;;;;;;;11.44;72.78;98416.09;4975911;28;20134;-80
2023/10/25 02:16:38;;;;;;;11.02;7.05;;;;;;;11.44;73.16;98415.28;4985106;28;20050;-81
2023/10/25 02:19:05;;;;;;;12.73;7.18;;;;;;;11.43;73.02;98408.31;4994998;28;20487;-81
2023/10/25 02:21:35;;;;;;;13.07;7.45;;;;;;;11.43;73.23;98410.97;4995220;28;20050;-84
2023/10/25 02:24:03;;;;;;;16.52;7.40;;;;;;;11.41;73.13;98413.75;4986520;28;20050;-81
2023/10/25 02:26:29;;;;;;;10.23;7.10;;;;;;;11.43;72.91;98410.97;4985592;28;20049;-81
2023/10/25 02:28:56;;;;;;;11.73;7.30;;;;;;;11.42;73.02;98414.56;4974861;28;20042;-85
2023/10/25 02:31:23;;;;;;;12.45;7.20;;;;;;;11.41;72.99;98415.53;4975543;28;20043;-81
2023/10/25 02:33:50;;;;;;;9.82;6.78;;;;;;;11.40;72.85;98416.50;4974257;28;20102;-81
2023/10/25 02:36:16;;;;;;;9.90;6.28;;;;;;;11.38;73.06;98407.88;4976206;28;20051;-83
2023/10/25 02:38:46;;;;;;;11.88;6.38;;;;;;;11.38;73.05;98407.88;4994752;28;20082;-84
2023/10/25 02:41:12;;;;;;;10.77;6.85;;;;;;;11.37;73.13;98412.31;4994934;28;20050;-81
2023/10/25 02:43:39;;;;;;;9.38;6.78;;;;;;;11.37;72.99;98416.75;4986790;28;20077;-83
2023/10/25 02:46:09;;;;;;;9.10;6.22;;;;;;;11.37;72.96;98416.75;4980980;28;20090;-81
2023/10/25 02:48:39;;;;;;;9.60;6.05;;;;;;;11.36;73.05;98412.44;4974379;28;20498;-82
2023/10/25 02:51:05;;;;;;;9.57;6.20;;;;;;;11.34;72.86;98413.38;4975031;28;20043;-84
2023/10/25 02:53:32;;;;;;;9.60;6.30;;;;;;;11.34;72.90;98410.75;4975565;28;20389;-82
2023/10/25 02:56:06;;;;;;;8.25;5.78;;;;;;;11.31;73.20;98412.81;4982426;28;20077;-81
2023/10/25 02:58:33;;;;;;;9.30;6.00;;;;;;;11.31;73.07;98402.28;4974833;28;20146;-82
2023/10/25 03:01:00;;;;;;;10.80;6.68;;;;;;;11.31;72.93;98402.28;4974892;28;20451;-83
2023/10/25 03:03:28;;;;;;;12.75;6.32;;;;;;;11.29;73.13;98404.22;4973844;28;20436;-81
2023/10/25 03:05:55;;;;;;;9.85;5.88;;;;;;;11.28;73.25;98397.25;4977653;28;20046;-82
2023/10/25 03:08:22;;;;;;;9.48;6.22;;;;;;;11.29;72.96;98404.22;4994164;28;20048;-82
2023/10/25 03:10:48;;;;;;;8.75;5.47;;;;;;;11.28;73.01;98394.59;4994234;28;20081;-82
2023/10/25 03:13:26;;;;;;;9.00;4.97;;;;;;;11.25;73.10;98398.34;4993010;28;20126;-84
2023/10/25 03:16:15;;;;;;;10.10;5.72;;;;;;;11.24;73.16;98386.13;4992328;28;20137;-81
2023/10/25 03:19:16;;;;;;;8.65;5.53;;;;;;;11.22;73.04;98390.72;4989149;28;20101;-82
2023/10/25 03:21:42;;;;;;;12.10;5.88;;;;;;;11.24;72.76;98385.28;4987571;28;20392;-81
2023/10/25 03:24:09;;;;;;;6.45;4.90;;;;;;;11.23;72.95;98384.47;4974854;28;20399;-82
2023/10/25 03:26:35;;;;;;;7.82;5.40;;;;;;;11.20;72.68;98379.44;4974653;28;20097;-83
2023/10/25 03:29:02;;;;;;;10.23;5.90;;;;;;;11.19;73.01;98383.03;4989528;28;20509;-81
2023/10/25 03:31:28;;;;;;;13.18;5.25;;;;;;;11.19;72.84;98383.03;4994106;28;20058;-82
2023/10/25 03:33:55;;;;;;;7.68;5.43;;;;;;;11.20;72.84;98382.06;4994017;28;20526;-81
2023/10/25 03:36:21;;;;;;;7.13;5.28;;;;;;;11.19;72.89;98383.03;4994044;28;20125;-81
2023/10/25 03:38:48;;;;;;;6.95;5.47;;;;;;;11.18;72.76;98378.75;4982012;28;20042;-82
2023/10/25 03:41:14;;;;;;;7.35;4.85;;;;;;;11.17;72.82;98382.31;4979815;28;20074;-83
2023/10/25 03:43:41;;;;;;;9.40;5.68;;;;;;;11.16;72.67;98376.25;4993639;28;20052;-83
2023/10/25 03:46:08;;;;;;;8.20;4.97;;;;;;;11.15;72.75;98377.19;4993371;28;20064;-82
2023/10/25 03:48:36;;;;;;;8.25;5.13;;;;;;;11.14;72.84;98374.69;4984837;28;20078;-82
2023/10/25 03:51:07;;;;;;;10.27;5.60;;;;;;;11.13;73.00;98370.38;4993534;28;20145;-81
2023/10/25 03:53:37;;;;;;;7.78;5.30;;;;;;;11.12;73.01;98360.78;4993897;28;20081;-85
2023/10/25 03:56:04;;;;;;;9.52;4.75;;;;;;;11.12;72.63;98363.44;4992382;28;20270;-81
2023/10/25 03:58:31;;;;;;;7.72;4.43;;;;;;;11.12;72.76;98347.63;4991571;28;20109;-81
2023/10/25 04:01:02;;;;;;;7.93;5.57;;;;;;;11.08;72.83;98355.81;4991428;28;20058;-83
2023/10/25 04:03:31;;;;;;;9.98;5.03;;;;;;;11.10;72.56;98349.56;4974191;28;20396;-82
2023/10/25 04:05:58;;;;;;;7.63;4.82;;;;;;;11.10;72.76;98336.41;4973830;28;20466;-84
2023/10/25 04:08:25;;;;;;;9.18;5.47;;;;;;;11.08;72.80;98340.00;4978195;28;20493;-81
2023/10/25 04:10:53;;;;;;;10.32;5.10;;;;;;;11.08;72.95;98333.88;4991889;28;20749;-82
2023/10/25 04:13:20;;;;;;;8.75;4.95;;;;;;;11.08;72.89;98339.16;4978972;28;20038;-82
2023/10/25 04:15:58;;;;;;;8.35;5.63;;;;;;;11.05;73.21;98353.41;4973787;28;20134;-84
2023/10/25 04:18:29;;;;;;;8.60;5.10;;;;;;;11.09;72.88;98356.63;4973882;28;20066;-81
2023/10/25 04:20:56;;;;;;;9.10;5.03;;;;;;;11.07;72.66;98348.03;4978865;28;20406;-82
2023/10/25 04:23:28;;;;;;;9.68;5.18;;;;;;;11.04;72.80;98358.81;4972320;28;20049;-85
2023/10/25 04:26:09;;;;;;;10.73;5.10;;;;;;;11.02;72.92;98371.25;4974165;28;20053;-81
2023/10/25 04:28:41;;;;;;;8.18;4.95;;;;;;;11.01;72.76;98370.41;4990447;28;20042;-85
2023/10/25 04:31:08;;;;;;;7.47;4.70;;;;;;;11.03;72.71;98363.22;4992846;28;20513;-81
2023/10/25 04:33:37;;;;;;;7.82;5.50;;;;;;;11.01;72.75;98343.25;4974109;28;20109;-81
2023/10/25 04:36:04;;;;;;;6.63;5.05;;;;;;;11.00;72.69;98326.63;4973369;28;20082;-82
2023/10/25 04:38:31;;;;;;;8.85;5.35;;;;;;;10.99;72.86;98324.13;4972514;28;20054;-82
2023/10/25 04:40:58;;;;;;;9.82;5.10;;;;;;;10.98;72.90;98318.00;4990183;28;20038;-81
2023/10/25 04:43:25;;;;;;;7.20;4.85;;;;;;;10.98;72.80;98307.47;4993014;28;20186;-82
2023/10/25 04:45:52;;;;;;;8.85;4.78;;;;;;;10.99;72.98;98314.41;4992684;28;20046;-83
2023/10/25 04:48:19;;;;;;;10.25;5.07;;;;;;;10.99;72.87;98313.59;4991927;28;20046;-82
2023/10/25 04:50:46;;;;;;;8.32;4.95;;;;;;;10.99;72.84;98316.22;4991001;28;20042;-81
2023/10/25 04:53:13;;;;;;;7.85;5.28;;;;;;;11.01;73.03;98322.19;4983244;28;20133;-82
2023/10/25 04:55:44;;;;;;;9.73;4.65;;;;;;;10.98;72.76;98327.72;4992029;28;20061;-85
2023/10/25 04:58:10;;;;;;;8.32;4.68;;;;;;;11.00;72.70;98316.09;4989523;28;20114;-82
2023/10/25 05:00:37;;;;;;;8.23;4.13;;;;;;;10.99;72.73;98318.84;4972455;28;20057;-82
2023/10/25 05:03:05;;;;;;;10.88;4.72;;;;;;;10.99;72.56;98311.78;4971956;28;20058;-82
2023/10/25 05:05:32;;;;;;;6.53;4.30;;;;;;;11.00;72.68;98320.50;4989526;28;20126;-85
2023/10/25 05:07:59;;;;;;;5.65;3.85;;;;;;;10.97;72.74;98305.81;4992567;28;20038;-85
2023/10/25 05:10:26;;;;;;;7.93;4.97;;;;;;;10.97;72.57;98297.91;4991110;28;20042;-82
2023/10/25 05:12:53;;;;;;;6.28;4.25;;;;;;;10.97;72.52;98290.00;4991780;28;20049;-81
2023/10/25 05:15:20;;;;;;;7.40;4.53;;;;;;;10.96;72.57;98290.97;4991817;28;20149;-81
2023/10/25 05:17:47;;;;;;;7.57;4.50;;;;;;;10.95;72.66;98297.19;4991572;28;20050;-80
2023/10/25 05:20:14;;;;;;;9.82;4.75;;;;;;;10.94;72.71;98296.38;4982042;28;20090;-80
2023/10/25 05:22:47;;;;;;;9.18;4.30;;;;;;;10.95;72.39;98303.28;4972293;28;20055;-81
2023/10/25 05:25:14;;;;;;;;;;;;;;;10.94;72.75;98299.00;4979683;28;20065;-80
2023/10/25 05:27:41;;;;;;;5.28;3.72;;;;;;;10.98;72.17;98302.22;4995888;23;19968;-76
2023/10/25 05:30:09;;;;;;;4.97;3.80;;;;;;;10.97;72.31;98307.59;4986250;28;20046;-76
2023/10/25 05:32:37;;;;;;;7.18;3.83;;;;;;;10.93;72.39;98312.28;4972537;28;20054;-76
2023/10/25 05:35:05;;;;;;;7.25;3.50;;;;;;;10.92;72.65;98314.06;4985766;28;20047;-80
2023/10/25 05:37:32;;;;;;;7.60;3.95;;;;;;;10.92;72.50;98318.53;4991897;28;20090;-78
2023/10/25 05:39:59;;;;;;;6.07;3.30;;;;;;;10.91;72.47;98309.78;4992037;28;20068;-71
2023/10/25 05:42:27;;;;;;;5.95;4.10;;;;;;;10.92;72.56;98308.00;4992158;28;20069;-75
2023/10/25 05:44:55;;;;;;;7.85;3.83;;;;;;;10.91;72.61;98303.66;4991470;28;20050;-74
2023/10/25 05:47:26;;;;;;;9.15;3.58;;;;;;;10.90;72.69;98307.25;4991258;28;20061;-71
2023/10/25 05:49:53;;;;;;;8.20;4.10;;;;;;;10.91;72.60;98311.56;4991351;28;20051;-79
2023/10/25 05:52:20;;;;;;;8.02;3.25;;;;;;;10.91;72.54;98309.78;4991791;28;20051;-75
2023/10/25 05:54:47;;;;;;;8.35;3.42;;;;;;;10.92;72.66;98302.72;4987250;28;20458;-75
2023/10/25 05:57:14;;;;;;;5.95;3.50;;;;;;;10.91;72.35;98312.41;4971294;28;20054;-77
2023/10/25 05:59:41;;;;;;;6.55;3.55;;;;;;;10.91;72.46;98308.94;4971592;28;20081;-73
2023/10/25 06:02:10;;;;;;;5.22;3.35;;;;;;;10.92;72.48;98302.72;4972261;28;20488;-78
2023/10/25 06:04:38;;;;;;;5.55;3.75;;;;;;;10.92;72.56;98305.34;4970830;28;20455;-79
2023/10/25 06:07:07;;;;;;;7.95;3.88;;;;;;;10.92;72.50;98311.44;4979471;28;20478;-82
2023/10/25 06:09:34;;;;;;;5.78;3.70;;;;;;;10.93;72.55;98314.91;4970883;28;20050;-76
2023/10/25 06:12:01;;;;;;;8.95;3.53;;;;;;;10.94;72.47;98311.31;4971211;28;20150;-76
2023/10/25 06:14:29;;;;;;;7.93;3.58;;;;;;;10.93;72.50;98310.50;4972281;28;20043;-74
2023/10/25 06:16:56;;;;;;;5.65;3.08;;;;;;;10.95;72.55;98310.34;4975790;28;20057;-77
2023/10/25 06:19:23;;;;;;;5.55;3.40;;;;;;;10.95;72.39;98297.19;4972335;28;20047;-75
2023/10/25 06:21:50;;;;;;;5.18;3.17;;;;;;;10.95;72.40;98295.41;4971935;28;20070;-77
2023/10/25 06:24:17;;;;;;;7.32;3.92;;;;;;;10.96;72.32;98296.25;4981633;28;20511;-74
2023/10/25 06:26:43;;;;;;;6.95;3.78;;;;;;;10.94;72.28;98299.00;4975464;28;20141;-75
2023/10/25 06:29:10;;;;;;;8.05;3.78;;;;;;;10.95;72.39;98299.81;4975227;28;20157;-81
2023/10/25 06:31:36;;;;;;;9.77;4.63;;;;;;;10.95;72.43;98295.41;4974333;28;20062;-76
2023/10/25 06:34:03;;;;;;;5.70;3.40;;;;;;;10.95;72.54;98290.13;4990885;28;20065;-73
2023/10/25 06:36:34;;;;;;;5.95;3.60;;;;;;;10.94;72.23;98296.38;4993642;28;20050;-76
2023/10/25 06:39:07;;;;;;;6.32;3.97;;;;;;;10.97;72.57;98294.44;4994332;28;20089;-75
2023/10/25 06:41:35;;;;;;;5.63;3.35;;;;;;;10.96;72.31;98293.63;4993276;28;20058;-77
2023/10/25 06:44:03;;;;;;;5.25;3.60;;;;;;;10.96;72.51;98290.97;4980135;28;20046;-72
2023/10/25 06:46:30;;;;;;;4.60;3.58;;;;;;;10.98;72.72;98304.84;4974810;28;20625;-74
2023/10/25 06:48:58;;;;;;;5.28;3.78;;;;;;;10.99;72.77;98303.88;4992433;28;20137;-75
2023/10/25 06:51:25;;;;;;;5.60;3.90;;;;;;;11.01;72.71;98301.97;4993981;28;20055;-75
2023/10/25 06:53:55;;;;;;;5.85;4.00;;;;;;;11.02;72.89;98293.09;4993758;28;20133;-78
2023/10/25 06:56:26;;;;;;;6.55;3.80;;;;;;;11.06;73.00;98289.25;4994258;28;20105;-77
2023/10/25 06:58:55;;;;;;;5.90;3.80;;;;;;;11.08;73.02;98292.59;4992656;28;20054;-79
2023/10/25 07:01:25;;;;;;;6.53;3.60;;;;;;;11.12;73.09;98292.31;4992677;28;20575;-80
2023/10/25 07:03:56;;;;;;;6.78;3.60;;;;;;;11.15;72.99;98282.41;4993229;28;20054;-74
2023/10/25 07:06:24;;;;;;;6.65;4.10;;;;;;;11.20;72.89;98279.34;4993815;28;20487;-73
2023/10/25 07:08:52;;;;;;;8.15;3.92;;;;;;;11.23;72.95;98281.75;4993833;28;20057;-75
2023/10/25 07:11:18;;;;;;;4.35;3.45;;;;;;;11.26;73.11;98275.38;4993912;28;20058;-71
2023/10/25 07:13:48;;;;;;;3.53;3.15;;;;;;;11.31;73.14;98283.72;4993773;28;20054;-72
2023/10/25 07:16:17;;;;;;;5.45;3.63;;;;;;;11.35;73.15;98271.97;4994062;28;20092;-70
2023/10/25 07:18:45;;;;;;;4.32;3.63;;;;;;;11.41;73.15;98275.88;4993570;28;20415;-80
2023/10/25 07:21:12;;;;;;;6.05;3.90;;;;;;;11.45;73.24;98274.66;4993356;28;20062;-78
2023/10/25 07:23:38;;;;;;;6.50;3.80;;;;;;;11.49;73.04;98264.69;4993697;28;20506;-77
2023/10/25 07:26:09;;;;;;;6.22;3.75;;;;;;;11.54;73.12;98259.84;4994004;28;20046;-71
2023/10/25 07:28:54;;;;;;;5.65;3.90;;;;;;;11.58;72.93;98256.84;4992530;28;20141;-75
2023/10/25 07:31:20;;;;;;;6.63;3.75;;;;;;;11.63;72.82;98248.56;4993598;28;20054;-78
2023/10/25 07:33:47;;;;;;;4.25;3.28;;;;;;;11.67;72.99;98254.38;4993565;28;20058;-74
2023/10/25 07:36:14;;;;;;;5.40;3.00;;;;;;;11.70;72.80;98251.50;4993292;28;20061;-78
2023/10/25 07:38:41;;;;;;;6.05;3.47;;;;;;;11.73;72.83;98252.06;4993787;28;20100;-75
2023/10/25 07:41:14;;;;;;;5.30;3.20;;;;;;;11.78;72.64;98245.56;4993608;28;20070;-75
2023/10/25 07:43:55;;;;;;;9.18;3.88;;;;;;;11.80;72.39;98238.34;4994262;28;20043;-74
2023/10/25 07:46:22;;;;;;;7.55;3.35;;;;;;;11.88;72.68;98235.06;4992944;28;20050;-77
2023/10/25 07:48:54;;;;;;;6.35;3.53;;;;;;;11.89;72.40;98234.91;4993664;28;20151;-73
2023/10/25 07:51:24;;;;;;;5.23;3.30;;;;;;;11.95;72.75;98231.75;4992288;28;20058;-75
2023/10/25 07:53:51;;;;;;;5.45;3.67;;;;;;;12.01;72.88;98227.72;4993484;28;20050;-75
2023/10/25 07:56:18;;;;;;;4.45;3.13;;;;;;;12.07;72.96;98223.75;4993028;28;20054;-79
2023/10/25 07:59:10;;;;;;;4.70;3.05;;;;;;;12.15;73.12;98223.06;4992969;28;20050;-75
2023/10/25 08:01:45;;;;;;;5.15;3.17;;;;;;;12.26;73.42;98225.56;4991558;28;20108;-76
2023/10/25 08:04:19;;;;;;;5.38;3.13;;;;;;;12.33;73.20;98220.59;4991928;28;20051;-74
2023/10/25 08:06:46;;;;;;;6.93;3.00;;;;;;;12.47;73.45;98220.19;4993165;28;20137;-73
2023/10/25 08:09:16;;;;;;;5.00;3.28;;;;;;;12.58;73.63;98206.03;4991470;28;20058;-75
2023/10/25 08:11:43;;;;;;;5.45;3.40;;;;;;;12.68;73.34;98210.47;4991800;28;20057;-74
2023/10/25 08:14:09;;;;;;;6.00;3.17;;;;;;;12.77;73.32;98202.56;4992764;28;20101;-75
2023/10/25 08:16:39;;;;;;;5.68;3.20;;;;;;;12.87;73.26;98207.00;4992498;28;20141;-81
2023/10/25 08:19:07;;;;;;;7.97;3.30;;;;;;;12.95;72.91;98195.72;4992708;28;20072;-79
2023/10/25 08:21:36;;;;;;;4.93;3.30;;;;;;;13.01;72.39;98201.25;4992347;28;20109;-75
2023/10/25 08:24:07;;;;;;;5.00;2.70;;;;;;;13.11;72.36;98200.41;4992769;28;20069;-79
2023/10/25 08:26:39;;;;;;;4.35;2.55;;;;;;;13.15;71.76;98205.28;4990911;28;20050;-80
2023/10/25 08:29:07;;;;;;;8.32;3.20;;;;;;;13.21;72.25;98193.31;4991827;28;20069;-73
2023/10/25 08:31:35;;;;;;;8.68;3.00;;;;;;;13.26;72.09;98193.72;4992020;28;20058;-75
2023/10/25 08:34:02;;;;;;;6.60;3.33;;;;;;;13.32;71.88;98191.47;4990859;28;20046;-77
2023/10/25 08:36:30;;;;;;;8.02;3.38;;;;;;;13.36;71.87;98192.84;4992044;28;20053;-75
2023/10/25 08:38:57;;;;;;;4.28;2.60;;;;;;;13.39;71.68;98185.44;4992437;28;20054;-74
2023/10/25 08:41:30;;;;;;;8.43;3.25;;;;;;;13.43;71.19;98180.72;4992496;28;20042;-69
2023/10/25 08:44:02;;;;;;;8.60;2.65;;;;;;;13.50;71.30;98178.34;4992545;28;20093;-77
2023/10/25 08:46:31;;;;;;;6.38;3.10;;;;;;;13.54;71.27;98179.72;4991965;28;20141;-73
2023/10/25 08:49:00;;;;;;;7.03;2.92;;;;;;;13.58;71.13;98181.09;4992343;28;20574;-79
2023/10/25 08:51:35;;;;;;;7.00;3.00;;;;;;;13.64;71.57;98180.50;4992354;28;20057;-76
2023/10/25 08:54:03;;;;;;;6.10;3.00;;;;;;;13.70;71.51;98180.91;4991472;28;20475;-79
2023/10/25 08:56:32;;;;;;;5.90;2.58;;;;;;;13.75;70.85;98183.97;4992629;28;20050;-75
2023/10/25 08:59:01;;;;;;;6.45;3.00;;;;;;;13.79;70.92;98172.91;4992573;28;20062;-71
2023/10/25 09:01:32;;;;;;;12.55;3.00;;;;;;;13.84;71.04;98169.00;4992509;28;20058;-75
2023/10/25 09:04:07;;;;;;;11.60;3.70;;;;;;;13.85;70.24;98170.66;4992401;28;20050;-74
2023/10/25 09:06:40;;;;;;;6.22;3.25;;;;;;;13.91;70.81;98176.19;4991922;28;20074;-70
2023/10/25 09:09:09;;;;;;;7.38;3.17;;;;;;;13.92;69.96;98177.03;4990833;28;20050;-73
2023/10/25 09:11:44;;;;;;;6.07;2.97;;;;;;;13.91;69.52;98165.59;4992265;28;20058;-73
2023/10/25 09:14:17;;;;;;;6.53;3.33;;;;;;;13.94;69.36;98161.84;4992403;28;20062;-75
2023/10/25 09:16:54;;;;;;;7.35;3.28;;;;;;;13.94;69.27;98154.75;4990779;28;20054;-80
2023/10/25 09:19:23;;;;;;;7.50;2.75;;;;;;;13.99;70.09;98154.31;4990342;28;20422;-75
2023/10/25 09:21:55;;;;;;;5.05;2.75;;;;;;;13.97;69.06;98156.25;4992551;28;20140;-75
2023/10/25 09:24:22;;;;;;;5.70;2.83;;;;;;;14.01;69.79;98154.97;4991889;28;20050;-77
2023/10/25 09:26:48;;;;;;;7.38;2.92;;;;;;;14.02;69.99;98145.22;4991857;28;20053;-74
2023/10/25 09:29:23;;;;;;;7.40;2.85;;;;;;;13.99;69.34;98149.00;4992159;28;20057;-74
2023/10/25 09:31:53;;;;;;;10.00;3.47;;;;;;;14.01;68.90;98146.19;4990915;28;20080;-75
2023/10/25 09:34:33;;;;;;;8.35;3.75;;;;;;;14.00;68.69;98147.19;4991862;28;20057;-75
2023/10/25 09:37:04;;;;;;;8.45;3.70;;;;;;;14.01;68.97;98139.09;4992117;28;20058;-75
2023/10/25 09:39:37;;;;;;;12.20;3.67;;;;;;;14.01;68.82;98143.53;4991728;28;20152;-75
2023/10/25 09:42:29;;;;;;;;;;;;;;;14.01;69.07;98139.09;4991427;28;20062;-73
2023/10/25 09:45:06;;;;;;;9.63;3.50;;;;;;;14.04;68.36;98140.59;4990862;28;19930;-76
2023/10/25 09:47:39;;;;;;;12.05;3.88;;;;;;;14.02;68.66;98140.75;4991855;28;20163;-73
2023/10/25 09:50:25;;;;;;;8.65;3.13;;;;;;;13.98;68.73;98141.22;4992072;28;20050;-76
2023/10/25 09:53:20;;;;;;;8.95;3.08;;;;;;;13.97;68.47;98136.91;4990451;28;20566;-72
2023/10/25 09:55:54;;;;;;;6.63;2.60;;;;;;;13.99;69.01;98140.22;4992186;28;20050;-71
2023/10/25 09:58:40;;;;;;;7.03;2.55;;;;;;;13.91;68.51;98131.22;4992595;28;20050;-79
2023/10/25 10:01:10;;;;;;;5.57;2.55;;;;;;;13.94;68.75;98123.00;4995429;28;20046;-75
2023/10/25 10:03:47;;;;;;;7.15;2.20;;;;;;;13.93;68.54;98125.78;4994616;28;20039;-79
2023/10/25 10:06:35;;;;;;;5.30;2.92;;;;;;;13.89;68.43;98125.25;4995518;28;20051;-75
2023/10/25 10:09:46;;;;;;;8.95;2.50;;;;;;;13.88;68.58;98120.97;4994864;28;20094;-77
2023/10/25 10:12:15;;;;;;;7.57;2.30;;;;;;;13.94;69.39;98122.16;4994620;28;20066;-74
2023/10/25 10:14:41;;;;;;;4.28;2.05;;;;;;;13.94;69.33;98109.78;4995198;28;20509;-77
2023/10/25 10:17:17;;;;;;;3.80;1.83;;;;;;;13.93;68.54;98109.91;4995230;28;20141;-73
2023/10/25 10:19:51;;;;;;;3.22;1.80;;;;;;;13.98;69.49;98107.66;4993725;28;20054;-74
2023/10/25 10:22:21;;;;;;;6.32;2.30;;;;;;;14.01;69.62;98104.72;4993589;28;20830;-74
2023/10/25 10:24:56;;;;;;;3.60;1.92;;;;;;;14.04;69.08;98099.13;4994933;28;20054;-75
2023/10/25 10:27:52;;;;;;;3.53;2.35;;;;;;;14.01;68.26;98091.47;4994885;28;20050;-77
2023/10/25 10:30:30;;;;;;;5.78;2.47;;;;;;;14.04;67.92;98091.19;4993326;28;20053;-74
2023/10/25 10:33:04;;;;;;;4.90;2.35;;;;;;;14.05;68.69;98087.56;4995322;28;20051;-77
2023/10/25 10:35:33;;;;;;;3.58;2.00;;;;;;;14.05;68.84;98090.19;4993622;28;20410;-73
2023/10/25 10:38:03;;;;;;;6.22;2.13;;;;;;;14.04;68.21;98074.47;4994670;28;20052;-81
2023/10/25 10:40:30;;;;;;;5.03;2.22;;;;;;;14.05;68.89;98071.69;4994766;28;20046;-71
2023/10/25 10:42:56;;;;;;;3.97;1.75;;;;;;;14.06;68.53;98068.03;4994341;28;20101;-81
2023/10/25 10:45:23;;;;;;;6.68;2.20;;;;;;;14.06;68.44;98059.28;4994742;28;20108;-79
2023/10/25 10:48:15;;;;;;;4.50;1.80;;;;;;;14.03;67.97;98054.28;4993465;28;20049;-76
2023/10/25 10:50:42;;;;;;;2.05;1.60;;;;;;;14.09;68.74;98045.75;4994888;28;20522;-73
2023/10/25 10:53:08;;;;;;;3.85;1.90;;;;;;;14.10;68.66;98042.13;4994276;28;20145;-77
2023/10/25 10:55:40;;;;;;;8.25;2.55;;;;;;;14.11;68.49;98032.34;4993852;28;20112;-77
2023/10/25 10:58:25;;;;;;;7.72;2.25;;;;;;;14.07;67.72;98035.34;4993528;28;20058;-81
2023/10/25 11:00:56;;;;;;;5.43;2.33;;;;;;;14.13;68.28;98030.41;4993157;28;20058;-75
2023/10/25 11:03:27;;;;;;;8.85;2.03;;;;;;;14.13;68.12;98035.69;4992623;28;20051;-74
2023/10/25 11:06:03;;;;;;;7.22;2.42;;;;;;;14.12;67.67;98028.72;4994129;28;20081;-72
2023/10/25 11:08:32;;;;;;;3.88;2.50;;;;;;;14.16;68.45;98020.34;4994489;28;20149;-75
2023/10/25 11:11:05;;;;;;;6.38;2.60;;;;;;;14.16;67.59;98025.63;4992747;28;20062;-82
2023/10/25 11:13:32;;;;;;;5.80;2.35;;;;;;;14.20;68.43;98019.03;4994075;28;20498;-75
2023/10/25 11:19:14;;;;;;;4.00;2.33;;;;;;;14.21;67.60;98009.31;4993922;28;20054;-71
2023/10/25 11:21:45;;;;;;;3.95;1.88;;;;;;;14.26;68.37;98003.53;4992413;28;20141;-74
2023/10/25 11:24:11;;;;;;;5.68;2.13;;;;;;;14.29;68.56;97996.13;4992559;28;20142;-71
2023/10/25 11:26:40;;;;;;;3.22;2.00;;;;;;;14.31;68.72;97996.78;4993579;28;20053;-72
2023/10/25 11:29:07;;;;;;;4.28;1.98;;;;;;;14.35;68.58;97978.78;5028159;23;20132;-81
2023/10/25 11:31:33;;;;;;;3.60;1.75;;;;;;;14.38;68.61;97978.47;4992479;28;20081;-80
2023/10/25 11:34:00;;;;;;;5.43;2.15;;;;;;;14.42;68.61;97971.03;4993353;28;20073;-79
2023/10/25 11:36:29;;;;;;;5.07;1.95;;;;;;;14.46;68.72;97967.94;4993222;28;20060;-81
2023/10/25 11:39:06;;;;;;;4.82;1.77;;;;;;;14.49;68.19;97965.94;4991881;28;20494;-85
2023/10/25 11:41:33;;;;;;;3.30;2.00;;;;;;;14.55;68.65;97954.75;4993207;28;20050;-81
2023/10/25 11:44:00;;;;;;;3.60;1.90;;;;;;;14.59;68.73;97956.09;4993329;28;20094;-81
2023/10/25 11:46:33;;;;;;;4.25;1.77;;;;;;;14.63;68.65;97952.13;4992927;28;20519;-83